createdAt,value
2023-01-21T00:00:45.668Z,0.57
2023-01-21T00:03:13.022Z,0.57
2023-01-21T00:05:39.981Z,0.58
2023-01-21T00:08:06.610Z,0.62
2023-01-21T00:10:33.631Z,0.62
2023-01-21T00:13:00.185Z,0.61
2023-01-21T00:15:26.831Z,0.59
2023-01-21T00:17:54.080Z,0.58
2023-01-21T00:20:20.722Z,0.53
2023-01-21T00:22:47.352Z,0.60
2023-01-21T00:25:13.896Z,0.66
2023-01-21T00:27:41.095Z,0.67
2023-01-21T00:30:08.586Z,0.65
2023-01-21T00:32:35.151Z,0.63
2023-01-21T00:35:01.715Z,0.68
2023-01-21T00:37:28.253Z,0.63
2023-01-21T00:39:54.780Z,0.68
2023-01-21T00:42:21.338Z,0.72
2023-01-21T00:44:47.911Z,0.69
2023-01-21T00:47:14.499Z,0.69
2023-01-21T00:49:42.190Z,0.65
2023-01-21T00:52:08.807Z,0.61
2023-01-21T00:54:35.352Z,0.60
2023-01-21T00:57:01.946Z,0.57
2023-01-21T00:59:28.718Z,0.53
2023-01-21T01:01:55.274Z,0.53
2023-01-21T01:04:22.987Z,0.59
2023-01-21T01:06:49.918Z,0.60
2023-01-21T01:09:16.695Z,0.60
2023-01-21T01:11:43.481Z,0.60
2023-01-21T01:14:10.034Z,0.59
2023-01-21T01:16:36.622Z,0.58
2023-01-21T01:19:03.446Z,0.57
2023-01-21T01:21:30.239Z,0.56
2023-01-21T01:24:00.641Z,0.57
2023-01-21T01:26:27.490Z,0.57
2023-01-21T01:28:54.056Z,0.57
2023-01-21T01:31:21.837Z,0.56
2023-01-21T01:33:48.739Z,0.56
2023-01-21T01:36:18.052Z,0.60
2023-01-21T01:38:45.340Z,0.61
2023-01-21T01:41:24.385Z,0.66
2023-01-21T01:43:55.808Z,0.69
2023-01-21T01:46:23.693Z,0.70
2023-01-21T01:48:57.430Z,0.68
2023-01-21T01:51:32.935Z,0.64
2023-01-21T01:54:00.450Z,0.61
2023-01-21T01:56:29.227Z,0.61
2023-01-21T01:58:56.168Z,0.60
2023-01-21T02:01:23.442Z,0.57
2023-01-21T02:03:59.275Z,0.53
2023-01-21T02:06:26.624Z,0.51
2023-01-21T02:08:53.799Z,0.50
2023-01-21T02:11:20.706Z,0.50
2023-01-21T02:13:53.256Z,0.51
2023-01-21T02:16:46.186Z,0.51
2023-01-21T02:19:18.786Z,0.51
2023-01-21T02:22:02.075Z,0.55
2023-01-21T02:24:53.055Z,0.55
2023-01-21T02:27:48.961Z,0.56
2023-01-21T02:30:36.615Z,0.55
2023-01-21T02:33:41.292Z,0.56
2023-01-21T02:36:44.498Z,0.54
2023-01-21T02:39:35.714Z,0.56
2023-01-21T02:42:22.326Z,0.55
2023-01-21T02:45:06.399Z,0.52
2023-01-21T02:47:40.679Z,0.51
2023-01-21T02:50:17.696Z,0.53
2023-01-21T02:52:44.372Z,0.54
2023-01-21T02:55:16.679Z,0.55
2023-01-21T02:57:48.750Z,0.55
2023-01-21T03:00:33.403Z,0.57
2023-01-21T03:03:18.233Z,0.53
2023-01-21T03:05:57.131Z,0.54
2023-01-21T03:08:32.721Z,0.56
2023-01-21T03:11:17.033Z,0.56
2023-01-21T03:14:13.369Z,0.55
2023-01-21T03:17:00.260Z,0.57
2023-01-21T03:19:42.973Z,0.58
2023-01-21T03:22:15.085Z,0.55
2023-01-21T03:24:45.356Z,0.56
2023-01-21T03:27:15.069Z,0.52
2023-01-21T03:29:43.723Z,0.54
2023-01-21T03:32:15.524Z,0.54
2023-01-21T03:34:48.261Z,0.53
2023-01-21T03:37:17.943Z,0.54
2023-01-21T03:39:44.579Z,0.53
2023-01-21T03:42:12.739Z,0.53
2023-01-21T03:44:40.154Z,0.52
2023-01-21T03:47:29.564Z,0.54
2023-01-21T03:50:01.286Z,0.52
2023-01-21T03:52:28.627Z,0.52
2023-01-21T03:54:55.354Z,0.52
2023-01-21T03:57:22.048Z,0.52
2023-01-21T03:59:48.721Z,0.54
2023-01-21T04:02:20.311Z,0.53
2023-01-21T04:04:47.682Z,0.48
2023-01-21T04:07:17.015Z,0.46
2023-01-21T04:09:43.650Z,0.49
2023-01-21T04:12:10.663Z,0.50
2023-01-21T04:14:37.463Z,0.47
2023-01-21T04:17:04.847Z,0.46
2023-01-21T04:19:31.597Z,0.44
2023-01-21T04:21:58.299Z,0.42
2023-01-21T04:24:25.251Z,0.38
2023-01-21T04:26:51.944Z,0.37
2023-01-21T04:29:19.012Z,0.33
2023-01-21T04:31:45.716Z,0.33
2023-01-21T04:34:12.418Z,0.32
2023-01-21T04:36:39.103Z,0.29
2023-01-21T04:39:05.926Z,0.25
2023-01-21T04:41:32.478Z,0.25
2023-01-21T04:43:59.051Z,0.20
2023-01-21T04:46:25.643Z,0.21
2023-01-21T04:48:52.216Z,0.19
2023-01-21T04:51:18.898Z,0.20
2023-01-21T04:53:45.544Z,0.23
2023-01-21T04:56:12.153Z,0.27
2023-01-21T04:58:38.727Z,0.26
2023-01-21T05:01:05.488Z,0.26
2023-01-21T05:03:32.099Z,0.26
2023-01-21T05:05:58.911Z,0.21
2023-01-21T05:08:25.557Z,0.19
2023-01-21T05:10:52.229Z,0.18
2023-01-21T05:13:18.756Z,0.17
2023-01-21T05:15:45.338Z,0.16
2023-01-21T05:18:11.951Z,0.16
2023-01-21T05:20:38.472Z,0.16
2023-01-21T05:23:05.053Z,0.16
2023-01-21T05:25:31.640Z,0.15
2023-01-21T05:27:58.327Z,0.16
2023-01-21T05:30:25.031Z,0.17
2023-01-21T05:32:55.266Z,0.19
2023-01-21T05:35:23.476Z,0.19
2023-01-21T05:37:50.210Z,0.17
2023-01-21T05:40:17.947Z,0.18
2023-01-21T05:42:45.903Z,0.18
2023-01-21T05:45:12.491Z,0.19
2023-01-21T05:47:39.283Z,0.19
2023-01-21T05:50:06.466Z,0.23
2023-01-21T05:52:33.004Z,0.27
2023-01-21T05:55:02.239Z,0.28
2023-01-21T05:57:29.645Z,0.28
2023-01-21T05:59:56.510Z,0.22
2023-01-21T06:02:23.146Z,0.27
2023-01-21T06:04:49.736Z,0.29
2023-01-21T06:07:16.511Z,0.29
2023-01-21T06:09:43.173Z,0.30
2023-01-21T06:12:09.707Z,0.32
2023-01-21T06:14:36.263Z,0.33
2023-01-21T06:17:02.840Z,0.33
2023-01-21T06:19:29.420Z,0.35
2023-01-21T06:21:55.944Z,0.38
2023-01-21T06:24:22.629Z,0.38
2023-01-21T06:26:49.231Z,0.42
2023-01-21T06:29:15.861Z,0.44
2023-01-21T06:31:42.509Z,0.48
2023-01-21T06:34:12.610Z,0.50
2023-01-21T06:36:40.906Z,0.53
2023-01-21T06:39:09.529Z,0.54
2023-01-21T06:41:36.086Z,0.56
2023-01-21T06:44:03.565Z,0.60
2023-01-21T06:46:30.272Z,0.62
2023-01-21T06:48:56.903Z,0.64
2023-01-21T06:51:23.570Z,0.69
2023-01-21T06:53:50.154Z,0.74
2023-01-21T06:56:16.729Z,0.74
2023-01-21T06:58:43.292Z,0.77
2023-01-21T07:01:09.940Z,0.79
2023-01-21T07:03:36.451Z,0.80
2023-01-21T07:06:03.021Z,0.85
2023-01-21T07:08:29.643Z,0.90
2023-01-21T07:10:56.187Z,0.90
2023-01-21T07:13:23.457Z,0.91
2023-01-21T07:15:50.325Z,0.89
2023-01-21T07:18:16.867Z,0.90
2023-01-21T07:20:43.563Z,0.89
2023-01-21T07:23:10.086Z,0.89
2023-01-21T07:25:37.472Z,0.90
2023-01-21T07:28:04.216Z,0.91
2023-01-21T07:30:30.756Z,0.92
2023-01-21T07:32:57.459Z,0.93
2023-01-21T07:35:24.040Z,0.95
2023-01-21T07:37:50.619Z,0.97
2023-01-21T07:40:17.501Z,0.97
2023-01-21T07:42:44.132Z,1.00
2023-01-21T07:45:10.866Z,1.04
2023-01-21T07:47:37.479Z,1.05
2023-01-21T07:50:08.589Z,1.05
2023-01-21T07:52:35.546Z,1.09
2023-01-21T07:55:02.111Z,1.12
2023-01-21T07:57:28.853Z,1.11
2023-01-21T07:59:55.788Z,1.14
2023-01-21T08:02:22.743Z,1.15
2023-01-21T08:04:49.496Z,1.15
2023-01-21T08:07:16.277Z,1.19
2023-01-21T08:09:42.949Z,1.23
2023-01-21T08:12:10.665Z,1.23
2023-01-21T08:14:38.622Z,1.27
2023-01-21T08:17:05.243Z,1.29
2023-01-21T08:19:31.799Z,1.31
2023-01-21T08:21:58.441Z,1.30
2023-01-21T08:24:25.071Z,1.35
2023-01-21T08:26:51.581Z,1.38
2023-01-21T08:29:18.159Z,1.42
2023-01-21T08:31:44.809Z,1.45
2023-01-21T08:34:11.391Z,1.46
2023-01-21T08:36:39.029Z,1.44
2023-01-21T08:39:06.391Z,1.46
2023-01-21T08:41:33.702Z,1.50
2023-01-21T08:44:00.704Z,1.51
2023-01-21T08:46:27.287Z,1.56
2023-01-21T08:48:53.860Z,1.60
2023-01-21T08:51:20.472Z,1.64
2023-01-21T08:53:50.065Z,1.65
2023-01-21T08:56:17.689Z,1.67
2023-01-21T08:58:44.794Z,1.72
2023-01-21T09:01:15.258Z,1.74
2023-01-21T09:03:42.268Z,1.78
2023-01-21T09:06:11.344Z,1.78
2023-01-21T09:08:37.930Z,1.81
2023-01-21T09:11:06.809Z,1.85
2023-01-21T09:13:38.634Z,1.93
2023-01-21T09:16:10.670Z,2.03
2023-01-21T09:18:37.741Z,2.11
2023-01-21T09:21:05.877Z,2.20
2023-01-21T09:23:34.765Z,2.24
2023-01-21T09:26:01.368Z,2.25
2023-01-21T09:28:29.767Z,2.22
2023-01-21T09:31:01.552Z,2.20
2023-01-21T09:33:30.064Z,2.17
2023-01-21T09:36:02.583Z,2.16
2023-01-21T09:38:30.130Z,2.16
2023-01-21T09:41:04.330Z,2.14
2023-01-21T09:43:38.790Z,2.18
2023-01-21T09:46:12.156Z,2.26
2023-01-21T09:48:43.702Z,2.38
2023-01-21T09:51:19.841Z,2.51
2023-01-21T09:53:55.492Z,2.60
2023-01-21T09:56:28.268Z,2.65
2023-01-21T09:59:07.036Z,2.67
2023-01-21T10:01:40.905Z,2.66
2023-01-21T10:04:33.674Z,2.66
2023-01-21T10:07:06.006Z,2.64
2023-01-21T10:09:47.667Z,2.64
2023-01-21T10:12:19.979Z,2.64
2023-01-21T10:14:58.635Z,2.62
2023-01-21T10:17:47.591Z,2.65
2023-01-21T10:20:24.482Z,2.65
2023-01-21T10:23:03.541Z,2.70
2023-01-21T10:25:32.472Z,2.72
2023-01-21T10:28:04.048Z,2.75
2023-01-21T10:30:33.718Z,2.79
2023-01-21T10:33:00.608Z,2.81
2023-01-21T10:35:52.492Z,2.78
2023-01-21T10:38:45.299Z,2.75
2023-01-21T10:41:53.163Z,2.73
2023-01-21T10:44:27.043Z,2.71
2023-01-21T10:47:19.643Z,2.72
2023-01-21T10:49:46.213Z,2.65
2023-01-21T10:52:45.290Z,2.64
2023-01-21T10:55:45.470Z,2.64
2023-01-21T10:58:18.086Z,2.62
2023-01-21T11:00:48.614Z,2.63
2023-01-21T11:03:35.132Z,2.64
2023-01-21T11:06:04.664Z,2.64
2023-01-21T11:08:31.393Z,2.65
2023-01-21T11:10:59.466Z,2.69
2023-01-21T11:13:26.501Z,2.67
2023-01-21T11:15:56.094Z,2.68
2023-01-21T11:18:42.874Z,2.70
2023-01-21T11:21:22.733Z,2.73
2023-01-21T11:24:20.584Z,2.73
2023-01-21T11:26:55.925Z,2.77
2023-01-21T11:29:24.669Z,2.77
2023-01-21T11:32:01.955Z,2.78
2023-01-21T11:34:28.856Z,2.79
2023-01-21T11:37:04.145Z,2.84
2023-01-21T11:39:37.095Z,2.87
2023-01-21T11:42:13.692Z,2.89
2023-01-21T11:44:58.353Z,2.92
2023-01-21T11:47:40.714Z,2.97
2023-01-21T11:50:18.200Z,3.00
2023-01-21T11:52:45.324Z,3.06
2023-01-21T11:55:23.879Z,3.12
2023-01-21T11:57:54.858Z,3.15
2023-01-21T12:00:24.872Z,3.21
2023-01-21T12:02:57.245Z,3.25
2023-01-21T12:05:23.787Z,3.28
2023-01-21T12:07:51.615Z,3.27
2023-01-21T12:10:35.882Z,3.29
2023-01-21T12:13:16.879Z,3.28
2023-01-21T12:16:06.073Z,3.26
2023-01-21T12:18:54.639Z,3.21
2023-01-21T12:21:31.592Z,3.19
2023-01-21T12:24:01.013Z,3.19
2023-01-21T12:26:53.234Z,3.18
2023-01-21T12:29:54.984Z,3.18
2023-01-21T12:32:31.454Z,3.20
2023-01-21T12:35:09.438Z,3.24
2023-01-21T12:37:51.288Z,3.21
2023-01-21T12:40:51.847Z,3.21
2023-01-21T12:43:27.282Z,3.19
2023-01-21T12:46:00.283Z,3.18
2023-01-21T12:48:33.355Z,3.18
2023-01-21T12:51:07.004Z,3.17
2023-01-21T12:53:42.473Z,3.12
2023-01-21T12:56:20.516Z,3.13
2023-01-21T12:58:55.112Z,3.07
2023-01-21T13:01:33.969Z,3.07
2023-01-21T13:04:38.971Z,3.07
2023-01-21T13:07:11.456Z,3.05
2023-01-21T13:09:46.923Z,3.04
2023-01-21T13:12:20.708Z,2.99
2023-01-21T13:14:55.255Z,2.98
2023-01-21T13:17:30.876Z,2.96
2023-01-21T13:19:59.208Z,2.91
2023-01-21T13:22:25.823Z,2.88
2023-01-21T13:25:05.448Z,2.85
2023-01-21T13:27:44.586Z,2.81
2023-01-21T13:30:26.741Z,2.80
2023-01-21T13:33:17.944Z,2.77
2023-01-21T13:36:03.289Z,2.78
2023-01-21T13:38:46.858Z,2.80
2023-01-21T13:41:16.823Z,2.77
2023-01-21T13:44:09.834Z,2.78
2023-01-21T13:47:09.027Z,2.73
2023-01-21T13:49:49.452Z,2.73
2023-01-21T13:52:43.790Z,2.76
2023-01-21T13:55:31.579Z,2.76
2023-01-21T13:58:02.630Z,2.76
2023-01-21T14:00:40.020Z,2.78
2023-01-21T14:03:19.527Z,2.80
2023-01-21T14:06:08.484Z,2.84
2023-01-21T14:08:45.526Z,2.89
2023-01-21T14:11:23.740Z,2.96
2023-01-21T14:14:00.988Z,3.02
2023-01-21T14:16:30.551Z,3.00
2023-01-21T14:19:18.413Z,2.97
2023-01-21T14:21:58.635Z,2.93
2023-01-21T14:24:28.637Z,2.88
2023-01-21T14:27:16.734Z,2.83
2023-01-21T14:29:46.964Z,2.77
2023-01-21T14:32:26.966Z,2.73
2023-01-21T14:35:13.873Z,2.70
2023-01-21T14:38:03.269Z,2.65
2023-01-21T14:40:33.303Z,2.59
2023-01-21T14:42:59.990Z,2.57
2023-01-21T14:46:23.633Z,2.50
2023-01-21T14:49:36.171Z,2.49
2023-01-21T14:52:03.592Z,2.50
2023-01-21T14:54:30.193Z,2.46
2023-01-21T14:57:13.795Z,2.45
2023-01-21T14:59:46.279Z,2.37
2023-01-21T15:02:37.328Z,2.34
2023-01-21T15:05:25.881Z,2.28
2023-01-21T15:08:23.868Z,2.25
2023-01-21T15:11:03.280Z,2.24
2023-01-21T15:13:32.672Z,2.24
2023-01-21T15:16:04.086Z,2.21
2023-01-21T15:18:50.902Z,2.13
2023-01-21T15:21:37.339Z,2.09
2023-01-21T15:24:23.031Z,2.08
2023-01-21T15:27:22.386Z,2.04
2023-01-21T15:29:54.741Z,2.03
2023-01-21T15:32:28.889Z,1.95
2023-01-21T15:35:18.774Z,1.91
2023-01-21T15:37:48.785Z,1.88
2023-01-21T15:40:23.287Z,1.88
2023-01-21T15:42:58.849Z,1.87
2023-01-21T15:46:19.513Z,1.86
2023-01-21T15:48:54.142Z,1.86
2023-01-21T15:51:47.929Z,1.87
2023-01-21T15:54:56.588Z,1.88
2023-01-21T15:57:34.789Z,1.88
2023-01-21T16:00:26.858Z,1.89
2023-01-21T16:03:00.441Z,1.92
2023-01-21T16:05:50.266Z,1.94
2023-01-21T16:08:44.931Z,1.95
2023-01-21T16:11:32.883Z,1.95
2023-01-21T16:14:30.167Z,1.93
2023-01-21T16:17:12.010Z,1.93
2023-01-21T16:19:45.454Z,1.96
2023-01-21T16:22:15.353Z,1.95
2023-01-21T16:24:49.860Z,1.95
2023-01-21T16:27:22.941Z,1.97
2023-01-21T16:29:58.575Z,1.98
2023-01-21T16:32:26.900Z,2.00
2023-01-21T16:34:54.148Z,1.97
2023-01-21T16:37:24.015Z,1.95
2023-01-21T16:40:13.999Z,1.94
2023-01-21T16:42:44.266Z,1.99
2023-01-21T16:45:21.591Z,1.97
2023-01-21T16:47:59.427Z,2.00
2023-01-21T16:50:28.431Z,2.01
2023-01-21T16:52:57.215Z,1.98
2023-01-21T16:55:26.895Z,1.96
2023-01-21T16:57:56.861Z,1.93
2023-01-21T17:00:31.488Z,1.89
2023-01-21T17:02:59.847Z,1.88
2023-01-21T17:05:32.898Z,1.89
2023-01-21T17:08:03.212Z,1.88
2023-01-21T17:10:39.963Z,1.85
2023-01-21T17:13:13.925Z,1.83
2023-01-21T17:15:43.344Z,1.84
2023-01-21T17:18:21.125Z,1.80
2023-01-21T17:20:51.313Z,1.80
2023-01-21T17:23:22.660Z,1.75
2023-01-21T17:25:58.667Z,1.73
2023-01-21T17:28:37.706Z,1.73
2023-01-21T17:31:10.575Z,1.75
2023-01-21T17:33:37.489Z,1.74
2023-01-21T17:36:29.865Z,1.72
2023-01-21T17:38:56.463Z,1.70
2023-01-21T17:41:27.627Z,1.70
2023-01-21T17:43:56.134Z,1.69
2023-01-21T17:46:24.367Z,1.68
2023-01-21T17:48:57.949Z,1.71
2023-01-21T17:51:30.424Z,1.70
2023-01-21T17:54:00.688Z,1.70
2023-01-21T17:56:42.613Z,1.70
2023-01-21T17:59:37.725Z,1.70
2023-01-21T18:02:12.419Z,1.67
2023-01-21T18:04:39.429Z,1.68
2023-01-21T18:07:20.829Z,1.65
2023-01-21T18:09:47.395Z,1.66
2023-01-21T18:12:14.209Z,1.66
2023-01-21T18:14:41.829Z,1.66
2023-01-21T18:17:17.038Z,1.67
2023-01-21T18:19:43.590Z,1.71
2023-01-21T18:22:22.585Z,1.72
2023-01-21T18:24:49.211Z,1.72
2023-01-21T18:27:17.325Z,1.73
2023-01-21T18:29:44.809Z,1.70
2023-01-21T18:32:14.212Z,1.71
2023-01-21T18:34:40.903Z,1.71
2023-01-21T18:37:16.082Z,1.70
2023-01-21T18:39:42.970Z,1.67
2023-01-21T18:42:15.280Z,1.66
2023-01-21T18:44:42.047Z,1.66
2023-01-21T18:47:14.115Z,1.62
2023-01-21T18:49:41.177Z,1.62
2023-01-21T18:52:11.121Z,1.61
2023-01-21T18:54:37.672Z,1.59
2023-01-21T18:57:10.164Z,1.61
2023-01-21T18:59:37.268Z,1.63
2023-01-21T19:02:06.055Z,1.63
2023-01-21T19:04:32.682Z,1.62
2023-01-21T19:07:01.339Z,1.62
2023-01-21T19:09:27.908Z,1.66
2023-01-21T19:11:54.463Z,1.65
2023-01-21T19:14:21.024Z,1.68
2023-01-21T19:16:47.682Z,1.70
2023-01-21T19:19:16.904Z,1.71
2023-01-21T19:21:43.495Z,1.71
2023-01-21T19:24:12.139Z,1.73
2023-01-21T19:26:39.185Z,1.74
2023-01-21T19:29:11.474Z,1.75
2023-01-21T19:31:38.116Z,1.75
2023-01-21T19:34:04.720Z,1.71
2023-01-21T19:36:31.375Z,1.70
2023-01-21T19:38:59.404Z,1.70
2023-01-21T19:41:26.001Z,1.72
2023-01-21T19:43:52.560Z,1.72
2023-01-21T19:46:19.731Z,1.71
2023-01-21T19:48:50.261Z,1.71
2023-01-21T19:51:17.028Z,1.71
2023-01-21T19:53:43.647Z,1.69
2023-01-21T19:56:16.031Z,1.69
2023-01-21T19:58:42.675Z,1.70
2023-01-21T20:01:09.252Z,1.68
2023-01-21T20:03:35.845Z,1.70
2023-01-21T20:06:05.432Z,1.70
2023-01-21T20:08:33.021Z,1.67
2023-01-21T20:10:59.590Z,1.67
2023-01-21T20:13:28.490Z,1.64
2023-01-21T20:15:55.490Z,1.66
2023-01-21T20:18:25.147Z,1.67
2023-01-21T20:20:52.426Z,1.67
2023-01-21T20:23:20.743Z,1.66
2023-01-21T20:25:51.153Z,1.65
2023-01-21T20:28:24.235Z,1.66
2023-01-21T20:30:52.095Z,1.68
2023-01-21T20:33:22.157Z,1.67
2023-01-21T20:35:50.971Z,1.66
2023-01-21T20:38:23.184Z,1.63
2023-01-21T20:40:49.770Z,1.64
2023-01-21T20:43:18.943Z,1.63
2023-01-21T20:45:48.914Z,1.64
2023-01-21T20:48:21.121Z,1.61
2023-01-21T20:50:48.438Z,1.61
2023-01-21T20:53:15.003Z,1.59
2023-01-21T20:55:45.033Z,1.57
2023-01-21T20:58:13.822Z,1.58
2023-01-21T21:00:41.262Z,1.57
2023-01-21T21:03:08.081Z,1.61
2023-01-21T21:05:34.658Z,1.62
2023-01-21T21:08:01.226Z,1.60
2023-01-21T21:10:38.351Z,1.58
2023-01-21T21:13:05.220Z,1.56
2023-01-21T21:15:34.719Z,1.56
2023-01-21T21:18:05.578Z,1.56
2023-01-21T21:20:35.391Z,1.59
2023-01-21T21:23:02.152Z,1.55
2023-01-21T21:25:32.011Z,1.56
2023-01-21T21:27:58.969Z,1.56
2023-01-21T21:30:32.941Z,1.57
2023-01-21T21:33:00.873Z,1.58
2023-01-21T21:35:47.020Z,1.58
2023-01-21T21:38:23.384Z,1.59
2023-01-21T21:40:53.131Z,1.59
2023-01-21T21:43:33.214Z,1.60
2023-01-21T21:46:30.606Z,1.59
2023-01-21T21:48:57.240Z,1.63
2023-01-21T21:51:24.201Z,1.66
2023-01-21T21:53:51.409Z,1.68
2023-01-21T21:56:20.508Z,1.68
2023-01-21T21:58:47.491Z,1.69
2023-01-21T22:01:17.164Z,1.66
2023-01-21T22:03:43.868Z,1.65
2023-01-21T22:06:11.745Z,1.64
2023-01-21T22:08:40.468Z,1.68
2023-01-21T22:11:09.402Z,1.66
2023-01-21T22:13:40.098Z,1.67
2023-01-21T22:16:10.598Z,1.68
2023-01-21T22:18:37.266Z,1.71
2023-01-21T22:21:10.487Z,1.70
2023-01-21T22:23:37.774Z,1.70
2023-01-21T22:26:06.800Z,1.70
2023-01-21T22:28:35.061Z,1.76
2023-01-21T22:31:06.991Z,1.74
2023-01-21T22:33:35.099Z,1.72
2023-01-21T22:36:07.157Z,1.74
2023-01-21T22:38:34.925Z,1.76
2023-01-21T22:41:02.097Z,1.79
2023-01-21T22:43:29.293Z,1.78
2023-01-21T22:45:57.026Z,1.79
2023-01-21T22:48:24.044Z,1.81
2023-01-21T22:50:58.311Z,1.83
2023-01-21T22:53:26.236Z,1.84
2023-01-21T22:55:57.098Z,1.85
2023-01-21T22:58:24.922Z,1.85
2023-01-21T23:00:52.879Z,1.84
2023-01-21T23:03:20.804Z,1.86
2023-01-21T23:05:47.636Z,1.85
2023-01-21T23:08:15.487Z,1.87
2023-01-21T23:10:42.688Z,1.86
2023-01-21T23:13:10.712Z,1.90
2023-01-21T23:15:42.131Z,1.91
2023-01-21T23:18:08.781Z,1.90
2023-01-21T23:20:36.847Z,1.90
2023-01-21T23:23:04.017Z,1.90
2023-01-21T23:25:30.607Z,1.91
2023-01-21T23:27:57.146Z,1.93
2023-01-21T23:30:23.681Z,1.95
2023-01-21T23:32:50.276Z,1.96
2023-01-21T23:35:19.079Z,1.95
2023-01-21T23:37:45.652Z,1.98
2023-01-21T23:40:12.439Z,1.97
2023-01-21T23:42:38.987Z,1.99
2023-01-21T23:45:05.726Z,1.98
2023-01-21T23:47:32.298Z,1.99
2023-01-21T23:49:58.903Z,1.97
2023-01-21T23:52:25.641Z,1.99
2023-01-21T23:54:52.245Z,2.00
2023-01-21T23:57:19.620Z,2.02
2023-01-21T23:59:46.206Z,2.04
